sensor_id;sensor_type;location;lat;lon;timestamp;temperature;humidity
78886;DHT22;68269;52.514;5.722;2023-06-22T00:02:24;20.80;63.80
78886;DHT22;68269;52.514;5.722;2023-06-22T00:04:54;20.80;63.80
78886;DHT22;68269;52.514;5.722;2023-06-22T00:07:23;20.80;63.90
78886;DHT22;68269;52.514;5.722;2023-06-22T00:09:52;20.70;63.90
78886;DHT22;68269;52.514;5.722;2023-06-22T00:12:21;20.70;63.90
78886;DHT22;68269;52.514;5.722;2023-06-22T00:14:51;20.70;63.90
78886;DHT22;68269;52.514;5.722;2023-06-22T00:17:20;20.70;64.00
78886;DHT22;68269;52.514;5.722;2023-06-22T00:19:52;20.70;64.00
78886;DHT22;68269;52.514;5.722;2023-06-22T00:22:22;20.60;64.10
78886;DHT22;68269;52.514;5.722;2023-06-22T00:24:55;20.60;64.10
78886;DHT22;68269;52.514;5.722;2023-06-22T00:27:24;20.60;64.20
78886;DHT22;68269;52.514;5.722;2023-06-22T00:29:53;20.60;64.20
78886;DHT22;68269;52.514;5.722;2023-06-22T00:32:22;20.50;64.30
78886;DHT22;68269;52.514;5.722;2023-06-22T00:34:54;20.50;64.30
78886;DHT22;68269;52.514;5.722;2023-06-22T00:37:24;20.50;64.40
78886;DHT22;68269;52.514;5.722;2023-06-22T00:39:56;20.50;64.40
78886;DHT22;68269;52.514;5.722;2023-06-22T00:42:25;20.50;64.40
78886;DHT22;68269;52.514;5.722;2023-06-22T00:44:54;20.50;64.40
78886;DHT22;68269;52.514;5.722;2023-06-22T00:47:24;20.50;64.40
78886;DHT22;68269;52.514;5.722;2023-06-22T00:49:56;20.50;64.40
78886;DHT22;68269;52.514;5.722;2023-06-22T00:52:26;20.50;64.60
78886;DHT22;68269;52.514;5.722;2023-06-22T00:54:57;20.40;64.60
78886;DHT22;68269;52.514;5.722;2023-06-22T00:57:28;20.40;64.60
78886;DHT22;68269;52.514;5.722;2023-06-22T00:59:58;20.30;64.60
78886;DHT22;68269;52.514;5.722;2023-06-22T01:02:27;20.30;64.70
78886;DHT22;68269;52.514;5.722;2023-06-22T01:05:00;20.30;64.70
78886;DHT22;68269;52.514;5.722;2023-06-22T01:07:34;20.30;64.80
78886;DHT22;68269;52.514;5.722;2023-06-22T01:10:08;20.30;64.80
78886;DHT22;68269;52.514;5.722;2023-06-22T01:12:44;20.30;64.80
78886;DHT22;68269;52.514;5.722;2023-06-22T01:15:21;20.20;64.90
78886;DHT22;68269;52.514;5.722;2023-06-22T01:17:52;20.10;65.00
78886;DHT22;68269;52.514;5.722;2023-06-22T01:20:25;20.10;64.90
78886;DHT22;68269;52.514;5.722;2023-06-22T01:23:06;20.00;65.00
78886;DHT22;68269;52.514;5.722;2023-06-22T01:25:45;20.00;65.00
78886;DHT22;68269;52.514;5.722;2023-06-22T01:28:30;20.00;65.00
78886;DHT22;68269;52.514;5.722;2023-06-22T01:31:01;20.00;65.00
78886;DHT22;68269;52.514;5.722;2023-06-22T01:33:35;20.00;64.90
78886;DHT22;68269;52.514;5.722;2023-06-22T01:36:07;20.00;65.00
78886;DHT22;68269;52.514;5.722;2023-06-22T01:38:37;19.90;65.00
78886;DHT22;68269;52.514;5.722;2023-06-22T01:41:07;19.90;65.00
78886;DHT22;68269;52.514;5.722;2023-06-22T01:43:40;19.90;65.00
78886;DHT22;68269;52.514;5.722;2023-06-22T01:46:10;19.90;65.00
78886;DHT22;68269;52.514;5.722;2023-06-22T01:48:40;19.90;65.00
78886;DHT22;68269;52.514;5.722;2023-06-22T01:51:09;19.80;65.10
78886;DHT22;68269;52.514;5.722;2023-06-22T01:53:39;19.80;65.10
78886;DHT22;68269;52.514;5.722;2023-06-22T01:56:09;19.70;65.20
78886;DHT22;68269;52.514;5.722;2023-06-22T01:58:46;19.70;65.20
78886;DHT22;68269;52.514;5.722;2023-06-22T02:01:23;19.70;65.20
78886;DHT22;68269;52.514;5.722;2023-06-22T02:04:00;19.70;65.30
78886;DHT22;68269;52.514;5.722;2023-06-22T02:06:34;19.70;65.30
78886;DHT22;68269;52.514;5.722;2023-06-22T02:09:08;19.70;65.30
78886;DHT22;68269;52.514;5.722;2023-06-22T02:11:41;19.60;65.30
78886;DHT22;68269;52.514;5.722;2023-06-22T02:14:13;19.50;65.30
78886;DHT22;68269;52.514;5.722;2023-06-22T02:16:43;19.50;65.30
78886;DHT22;68269;52.514;5.722;2023-06-22T02:19:12;19.50;65.40
78886;DHT22;68269;52.514;5.722;2023-06-22T02:21:44;19.50;65.40
78886;DHT22;68269;52.514;5.722;2023-06-22T02:24:14;19.40;65.40
78886;DHT22;68269;52.514;5.722;2023-06-22T02:26:43;19.40;65.50
78886;DHT22;68269;52.514;5.722;2023-06-22T02:29:16;19.40;65.50
78886;DHT22;68269;52.514;5.722;2023-06-22T02:31:45;19.40;65.50
78886;DHT22;68269;52.514;5.722;2023-06-22T02:34:14;19.40;65.50
78886;DHT22;68269;52.514;5.722;2023-06-22T02:36:44;19.40;65.50
78886;DHT22;68269;52.514;5.722;2023-06-22T02:39:18;19.30;65.50
78886;DHT22;68269;52.514;5.722;2023-06-22T02:41:49;19.30;65.50
78886;DHT22;68269;52.514;5.722;2023-06-22T02:44:21;19.30;65.50
78886;DHT22;68269;52.514;5.722;2023-06-22T02:46:51;19.30;65.60
78886;DHT22;68269;52.514;5.722;2023-06-22T02:49:21;19.30;65.50
78886;DHT22;68269;52.514;5.722;2023-06-22T02:51:50;19.20;65.60
78886;DHT22;68269;52.514;5.722;2023-06-22T02:54:21;19.20;65.60
78886;DHT22;68269;52.514;5.722;2023-06-22T02:56:53;19.20;65.60
78886;DHT22;68269;52.514;5.722;2023-06-22T02:59:25;19.20;65.60
78886;DHT22;68269;52.514;5.722;2023-06-22T03:02:01;19.10;65.70
78886;DHT22;68269;52.514;5.722;2023-06-22T03:04:33;19.10;65.70
78886;DHT22;68269;52.514;5.722;2023-06-22T03:07:02;19.10;65.70
78886;DHT22;68269;52.514;5.722;2023-06-22T03:09:33;19.10;65.70
78886;DHT22;68269;52.514;5.722;2023-06-22T03:12:03;19.00;65.80
78886;DHT22;68269;52.514;5.722;2023-06-22T03:14:43;19.00;65.80
78886;DHT22;68269;52.514;5.722;2023-06-22T03:17:13;19.00;65.80
78886;DHT22;68269;52.514;5.722;2023-06-22T03:19:43;19.00;65.60
78886;DHT22;68269;52.514;5.722;2023-06-22T03:22:12;19.00;65.60
78886;DHT22;68269;52.514;5.722;2023-06-22T03:24:41;19.00;65.70
78886;DHT22;68269;52.514;5.722;2023-06-22T03:27:10;18.90;65.80
78886;DHT22;68269;52.514;5.722;2023-06-22T03:29:43;18.90;65.80
78886;DHT22;68269;52.514;5.722;2023-06-22T03:32:12;18.90;65.90
78886;DHT22;68269;52.514;5.722;2023-06-22T03:34:42;18.90;65.90
78886;DHT22;68269;52.514;5.722;2023-06-22T03:37:14;18.90;65.90
78886;DHT22;68269;52.514;5.722;2023-06-22T03:39:44;18.90;66.00
78886;DHT22;68269;52.514;5.722;2023-06-22T03:42:14;18.90;66.00
78886;DHT22;68269;52.514;5.722;2023-06-22T03:44:46;18.90;66.10
78886;DHT22;68269;52.514;5.722;2023-06-22T03:47:15;19.00;66.10
78886;DHT22;68269;52.514;5.722;2023-06-22T03:49:45;19.00;66.10
78886;DHT22;68269;52.514;5.722;2023-06-22T03:52:14;19.00;66.20
78886;DHT22;68269;52.514;5.722;2023-06-22T03:54:43;19.00;66.30
78886;DHT22;68269;52.514;5.722;2023-06-22T03:57:13;19.00;66.30
78886;DHT22;68269;52.514;5.722;2023-06-22T03:59:42;19.00;66.30
78886;DHT22;68269;52.514;5.722;2023-06-22T04:02:14;19.00;66.40
78886;DHT22;68269;52.514;5.722;2023-06-22T04:04:43;19.00;66.50
78886;DHT22;68269;52.514;5.722;2023-06-22T04:07:12;19.00;66.40
78886;DHT22;68269;52.514;5.722;2023-06-22T04:09:42;19.00;66.50
78886;DHT22;68269;52.514;5.722;2023-06-22T04:12:11;19.00;66.50
78886;DHT22;68269;52.514;5.722;2023-06-22T04:14:40;19.00;66.60
78886;DHT22;68269;52.514;5.722;2023-06-22T04:17:10;19.00;66.60
78886;DHT22;68269;52.514;5.722;2023-06-22T04:19:43;19.00;66.60
78886;DHT22;68269;52.514;5.722;2023-06-22T04:22:13;19.00;66.70
78886;DHT22;68269;52.514;5.722;2023-06-22T04:24:42;19.00;66.70
78886;DHT22;68269;52.514;5.722;2023-06-22T04:27:11;19.00;66.70
78886;DHT22;68269;52.514;5.722;2023-06-22T04:29:41;19.10;66.70
78886;DHT22;68269;52.514;5.722;2023-06-22T04:32:15;19.10;66.80
78886;DHT22;68269;52.514;5.722;2023-06-22T04:34:46;19.10;66.90
78886;DHT22;68269;52.514;5.722;2023-06-22T04:37:16;19.10;67.00
78886;DHT22;68269;52.514;5.722;2023-06-22T04:39:45;19.10;66.90
78886;DHT22;68269;52.514;5.722;2023-06-22T04:42:14;19.10;66.90
78886;DHT22;68269;52.514;5.722;2023-06-22T04:44:44;19.20;67.00
78886;DHT22;68269;52.514;5.722;2023-06-22T04:47:13;19.20;67.10
78886;DHT22;68269;52.514;5.722;2023-06-22T04:49:42;19.20;67.20
78886;DHT22;68269;52.514;5.722;2023-06-22T04:52:14;19.30;67.20
78886;DHT22;68269;52.514;5.722;2023-06-22T04:54:46;19.30;67.40
78886;DHT22;68269;52.514;5.722;2023-06-22T04:57:21;19.30;67.40
78886;DHT22;68269;52.514;5.722;2023-06-22T04:59:58;19.40;67.50
78886;DHT22;68269;52.514;5.722;2023-06-22T05:02:37;19.40;67.50
78886;DHT22;68269;52.514;5.722;2023-06-22T05:05:07;19.40;67.30
78886;DHT22;68269;52.514;5.722;2023-06-22T05:07:43;19.40;67.40
78886;DHT22;68269;52.514;5.722;2023-06-22T05:10:14;19.50;67.50
78886;DHT22;68269;52.514;5.722;2023-06-22T05:12:44;19.50;67.50
78886;DHT22;68269;52.514;5.722;2023-06-22T05:15:13;19.50;67.60
78886;DHT22;68269;52.514;5.722;2023-06-22T05:17:42;19.50;67.70
78886;DHT22;68269;52.514;5.722;2023-06-22T05:20:14;19.60;67.70
78886;DHT22;68269;52.514;5.722;2023-06-22T05:22:46;19.60;67.80
78886;DHT22;68269;52.514;5.722;2023-06-22T05:25:16;19.70;67.90
78886;DHT22;68269;52.514;5.722;2023-06-22T05:27:45;19.70;67.90
78886;DHT22;68269;52.514;5.722;2023-06-22T05:30:17;19.80;67.80
78886;DHT22;68269;52.514;5.722;2023-06-22T05:32:46;19.80;67.90
78886;DHT22;68269;52.514;5.722;2023-06-22T05:35:15;19.90;67.90
78886;DHT22;68269;52.514;5.722;2023-06-22T05:37:47;19.90;68.00
78886;DHT22;68269;52.514;5.722;2023-06-22T05:40:17;19.90;68.00
78886;DHT22;68269;52.514;5.722;2023-06-22T05:42:47;20.00;68.10
78886;DHT22;68269;52.514;5.722;2023-06-22T05:45:16;20.00;68.20
78886;DHT22;68269;52.514;5.722;2023-06-22T05:47:45;20.00;68.20
78886;DHT22;68269;52.514;5.722;2023-06-22T05:50:14;20.00;68.20
78886;DHT22;68269;52.514;5.722;2023-06-22T05:52:46;20.00;68.30
78886;DHT22;68269;52.514;5.722;2023-06-22T05:55:16;20.00;68.40
78886;DHT22;68269;52.514;5.722;2023-06-22T05:57:45;20.10;68.30
78886;DHT22;68269;52.514;5.722;2023-06-22T06:00:15;20.20;68.30
78886;DHT22;68269;52.514;5.722;2023-06-22T06:02:45;20.30;68.20
78886;DHT22;68269;52.514;5.722;2023-06-22T06:05:15;20.30;68.30
78886;DHT22;68269;52.514;5.722;2023-06-22T06:07:48;20.30;68.30
78886;DHT22;68269;52.514;5.722;2023-06-22T06:10:17;20.40;68.30
78886;DHT22;68269;52.514;5.722;2023-06-22T06:12:46;20.50;68.30
78886;DHT22;68269;52.514;5.722;2023-06-22T06:15:16;20.50;68.20
78886;DHT22;68269;52.514;5.722;2023-06-22T06:17:46;20.50;68.20
78886;DHT22;68269;52.514;5.722;2023-06-22T06:20:18;20.60;68.20
78886;DHT22;68269;52.514;5.722;2023-06-22T06:22:51;20.60;68.20
78886;DHT22;68269;52.514;5.722;2023-06-22T06:25:20;20.70;68.10
78886;DHT22;68269;52.514;5.722;2023-06-22T06:27:52;20.90;67.90
78886;DHT22;68269;52.514;5.722;2023-06-22T06:30:23;21.00;67.80
78886;DHT22;68269;52.514;5.722;2023-06-22T06:32:52;21.10;67.60
78886;DHT22;68269;52.514;5.722;2023-06-22T06:35:22;21.20;67.60
78886;DHT22;68269;52.514;5.722;2023-06-22T06:37:54;21.40;67.50
78886;DHT22;68269;52.514;5.722;2023-06-22T06:40:23;21.50;67.30
78886;DHT22;68269;52.514;5.722;2023-06-22T06:42:52;21.70;67.10
78886;DHT22;68269;52.514;5.722;2023-06-22T06:45:23;21.90;66.90
78886;DHT22;68269;52.514;5.722;2023-06-22T06:47:54;22.00;66.60
78886;DHT22;68269;52.514;5.722;2023-06-22T06:50:24;22.20;66.40
78886;DHT22;68269;52.514;5.722;2023-06-22T06:52:56;22.30;66.20
78886;DHT22;68269;52.514;5.722;2023-06-22T06:55:25;22.40;66.20
78886;DHT22;68269;52.514;5.722;2023-06-22T06:57:55;22.50;66.10
78886;DHT22;68269;52.514;5.722;2023-06-22T07:00:24;22.60;66.00
78886;DHT22;68269;52.514;5.722;2023-06-22T07:02:53;22.60;66.00
78886;DHT22;68269;52.514;5.722;2023-06-22T07:05:23;22.70;65.90
78886;DHT22;68269;52.514;5.722;2023-06-22T07:07:55;22.80;65.90
78886;DHT22;68269;52.514;5.722;2023-06-22T07:10:24;22.80;65.80
78886;DHT22;68269;52.514;5.722;2023-06-22T07:12:53;22.90;65.80
78886;DHT22;68269;52.514;5.722;2023-06-22T07:15:23;22.90;65.70
78886;DHT22;68269;52.514;5.722;2023-06-22T07:17:52;22.90;65.70
78886;DHT22;68269;52.514;5.722;2023-06-22T07:20:21;23.00;65.60
78886;DHT22;68269;52.514;5.722;2023-06-22T07:22:51;23.00;65.50
78886;DHT22;68269;52.514;5.722;2023-06-22T07:25:23;23.00;65.40
78886;DHT22;68269;52.514;5.722;2023-06-22T07:28:00;23.10;65.40
78886;DHT22;68269;52.514;5.722;2023-06-22T07:30:30;23.10;65.40
78886;DHT22;68269;52.514;5.722;2023-06-22T07:33:00;23.10;65.30
78886;DHT22;68269;52.514;5.722;2023-06-22T07:35:30;23.10;65.30
78886;DHT22;68269;52.514;5.722;2023-06-22T07:38:00;23.00;65.40
78886;DHT22;68269;52.514;5.722;2023-06-22T07:40:32;23.00;65.50
78886;DHT22;68269;52.514;5.722;2023-06-22T07:43:02;23.00;65.50
78886;DHT22;68269;52.514;5.722;2023-06-22T07:45:31;23.00;65.50
78886;DHT22;68269;52.514;5.722;2023-06-22T07:48:02;23.10;65.50
78886;DHT22;68269;52.514;5.722;2023-06-22T07:50:31;23.10;65.40
78886;DHT22;68269;52.514;5.722;2023-06-22T07:53:01;23.10;65.30
78886;DHT22;68269;52.514;5.722;2023-06-22T07:55:33;23.10;65.30
78886;DHT22;68269;52.514;5.722;2023-06-22T07:58:02;23.10;65.30
78886;DHT22;68269;52.514;5.722;2023-06-22T08:00:33;23.20;65.20
78886;DHT22;68269;52.514;5.722;2023-06-22T08:03:02;23.20;65.20
78886;DHT22;68269;52.514;5.722;2023-06-22T08:05:32;23.30;65.10
78886;DHT22;68269;52.514;5.722;2023-06-22T08:08:01;23.40;65.10
78886;DHT22;68269;52.514;5.722;2023-06-22T08:10:33;23.40;64.90
78886;DHT22;68269;52.514;5.722;2023-06-22T08:13:02;23.50;64.80
78886;DHT22;68269;52.514;5.722;2023-06-22T08:15:32;23.50;64.70
78886;DHT22;68269;52.514;5.722;2023-06-22T08:18:01;23.60;64.60
78886;DHT22;68269;52.514;5.722;2023-06-22T08:20:30;23.60;64.60
78886;DHT22;68269;52.514;5.722;2023-06-22T08:23:00;23.70;64.50
78886;DHT22;68269;52.514;5.722;2023-06-22T08:25:35;23.80;64.40
78886;DHT22;68269;52.514;5.722;2023-06-22T08:28:05;23.90;64.30
78886;DHT22;68269;52.514;5.722;2023-06-22T08:30:34;23.90;64.20
78886;DHT22;68269;52.514;5.722;2023-06-22T08:33:03;23.90;64.30
78886;DHT22;68269;52.514;5.722;2023-06-22T08:35:33;24.00;64.10
78886;DHT22;68269;52.514;5.722;2023-06-22T08:38:02;24.00;64.00
78886;DHT22;68269;52.514;5.722;2023-06-22T08:40:34;24.10;63.90
78886;DHT22;68269;52.514;5.722;2023-06-22T08:43:03;24.20;63.90
78886;DHT22;68269;52.514;5.722;2023-06-22T08:45:32;24.20;63.80
78886;DHT22;68269;52.514;5.722;2023-06-22T08:48:02;24.40;63.70
78886;DHT22;68269;52.514;5.722;2023-06-22T08:50:31;24.40;63.70
78886;DHT22;68269;52.514;5.722;2023-06-22T08:53:00;24.50;63.60
78886;DHT22;68269;52.514;5.722;2023-06-22T08:55:30;24.50;63.50
78886;DHT22;68269;52.514;5.722;2023-06-22T08:58:01;24.60;63.40
78886;DHT22;68269;52.514;5.722;2023-06-22T09:00:31;24.70;63.30
78886;DHT22;68269;52.514;5.722;2023-06-22T09:03:01;24.70;63.20
78886;DHT22;68269;52.514;5.722;2023-06-22T09:05:31;24.70;63.20
78886;DHT22;68269;52.514;5.722;2023-06-22T09:08:00;24.80;63.00
78886;DHT22;68269;52.514;5.722;2023-06-22T09:10:29;24.90;63.00
78886;DHT22;68269;52.514;5.722;2023-06-22T09:13:01;25.00;62.90
78886;DHT22;68269;52.514;5.722;2023-06-22T09:15:30;25.00;62.70
78886;DHT22;68269;52.514;5.722;2023-06-22T09:18:03;25.00;62.70
78886;DHT22;68269;52.514;5.722;2023-06-22T09:20:33;25.20;62.60
78886;DHT22;68269;52.514;5.722;2023-06-22T09:23:02;25.30;62.50
78886;DHT22;68269;52.514;5.722;2023-06-22T09:25:32;25.30;62.40
78886;DHT22;68269;52.514;5.722;2023-06-22T09:28:04;25.40;62.30
78886;DHT22;68269;52.514;5.722;2023-06-22T09:30:33;25.50;62.20
78886;DHT22;68269;52.514;5.722;2023-06-22T09:33:02;25.50;62.20
78886;DHT22;68269;52.514;5.722;2023-06-22T09:35:32;25.60;62.10
78886;DHT22;68269;52.514;5.722;2023-06-22T09:38:01;25.60;62.00
78886;DHT22;68269;52.514;5.722;2023-06-22T09:40:31;25.70;61.80
78886;DHT22;68269;52.514;5.722;2023-06-22T09:43:08;25.80;61.70
78886;DHT22;68269;52.514;5.722;2023-06-22T09:45:38;25.80;61.50
78886;DHT22;68269;52.514;5.722;2023-06-22T09:48:07;25.90;61.20
78886;DHT22;68269;52.514;5.722;2023-06-22T09:50:36;26.00;61.10
78886;DHT22;68269;52.514;5.722;2023-06-22T09:53:06;26.00;61.00
78886;DHT22;68269;52.514;5.722;2023-06-22T09:55:35;26.00;61.00
78886;DHT22;68269;52.514;5.722;2023-06-22T09:58:10;26.00;61.10
78886;DHT22;68269;52.514;5.722;2023-06-22T10:00:39;26.00;61.10
78886;DHT22;68269;52.514;5.722;2023-06-22T10:03:08;26.00;61.10
78886;DHT22;68269;52.514;5.722;2023-06-22T10:05:38;26.00;61.10
78886;DHT22;68269;52.514;5.722;2023-06-22T10:08:07;26.00;61.10
78886;DHT22;68269;52.514;5.722;2023-06-22T10:10:39;26.10;61.10
78886;DHT22;68269;52.514;5.722;2023-06-22T10:13:13;26.10;60.90
78886;DHT22;68269;52.514;5.722;2023-06-22T10:15:43;26.20;60.80
78886;DHT22;68269;52.514;5.722;2023-06-22T10:18:15;26.20;60.90
78886;DHT22;68269;52.514;5.722;2023-06-22T10:20:49;26.20;60.90
78886;DHT22;68269;52.514;5.722;2023-06-22T10:23:19;26.20;60.80
78886;DHT22;68269;52.514;5.722;2023-06-22T10:25:49;26.20;60.70
78886;DHT22;68269;52.514;5.722;2023-06-22T10:28:20;26.30;60.60
78886;DHT22;68269;52.514;5.722;2023-06-22T10:30:50;26.40;60.50
78886;DHT22;68269;52.514;5.722;2023-06-22T10:33:19;26.30;60.50
78886;DHT22;68269;52.514;5.722;2023-06-22T10:35:49;26.20;60.50
78886;DHT22;68269;52.514;5.722;2023-06-22T10:38:18;26.10;60.50
78886;DHT22;68269;52.514;5.722;2023-06-22T10:40:47;26.00;60.50
78886;DHT22;68269;52.514;5.722;2023-06-22T10:43:19;25.90;60.70
78886;DHT22;68269;52.514;5.722;2023-06-22T10:45:49;25.80;60.70
78886;DHT22;68269;52.514;5.722;2023-06-22T10:48:18;25.80;60.70
78886;DHT22;68269;52.514;5.722;2023-06-22T10:50:47;25.80;60.60
78886;DHT22;68269;52.514;5.722;2023-06-22T10:53:16;25.70;60.70
78886;DHT22;68269;52.514;5.722;2023-06-22T10:55:46;25.60;60.60
78886;DHT22;68269;52.514;5.722;2023-06-22T10:58:15;25.60;60.60
78886;DHT22;68269;52.514;5.722;2023-06-22T11:00:47;25.60;60.70
78886;DHT22;68269;52.514;5.722;2023-06-22T11:03:16;25.60;60.70
78886;DHT22;68269;52.514;5.722;2023-06-22T11:05:45;25.60;60.60
78886;DHT22;68269;52.514;5.722;2023-06-22T11:08:15;25.50;60.60
78886;DHT22;68269;52.514;5.722;2023-06-22T11:10:44;25.50;60.50
78886;DHT22;68269;52.514;5.722;2023-06-22T11:13:13;25.50;60.50
78886;DHT22;68269;52.514;5.722;2023-06-22T11:15:43;25.50;60.60
78886;DHT22;68269;52.514;5.722;2023-06-22T11:18:15;25.50;60.60
78886;DHT22;68269;52.514;5.722;2023-06-22T11:20:44;25.40;60.60
78886;DHT22;68269;52.514;5.722;2023-06-22T11:23:15;25.30;60.60
78886;DHT22;68269;52.514;5.722;2023-06-22T11:25:45;25.30;60.50
78886;DHT22;68269;52.514;5.722;2023-06-22T11:28:14;25.20;60.60
78886;DHT22;68269;52.514;5.722;2023-06-22T11:30:43;25.20;60.60
78886;DHT22;68269;52.514;5.722;2023-06-22T11:33:15;25.20;60.60
78886;DHT22;68269;52.514;5.722;2023-06-22T11:35:45;25.10;60.60
78886;DHT22;68269;52.514;5.722;2023-06-22T11:38:14;25.00;60.50
78886;DHT22;68269;52.514;5.722;2023-06-22T11:40:43;25.00;60.50
78886;DHT22;68269;52.514;5.722;2023-06-22T11:43:13;25.00;60.50
78886;DHT22;68269;52.514;5.722;2023-06-22T11:45:42;25.00;60.50
78886;DHT22;68269;52.514;5.722;2023-06-22T11:48:11;25.00;60.40
78886;DHT22;68269;52.514;5.722;2023-06-22T11:50:43;25.00;60.40
78886;DHT22;68269;52.514;5.722;2023-06-22T11:53:12;25.00;60.60
78886;DHT22;68269;52.514;5.722;2023-06-22T11:55:43;25.00;60.60
78886;DHT22;68269;52.514;5.722;2023-06-22T11:58:12;25.00;60.70
78886;DHT22;68269;52.514;5.722;2023-06-22T12:00:42;24.90;60.80
78886;DHT22;68269;52.514;5.722;2023-06-22T12:03:11;24.90;60.90
78886;DHT22;68269;52.514;5.722;2023-06-22T12:05:43;24.90;60.90
78886;DHT22;68269;52.514;5.722;2023-06-22T12:08:13;24.90;61.00
78886;DHT22;68269;52.514;5.722;2023-06-22T12:10:42;24.90;60.90
78886;DHT22;68269;52.514;5.722;2023-06-22T12:13:11;24.90;60.90
78886;DHT22;68269;52.514;5.722;2023-06-22T12:15:41;24.90;61.10
78886;DHT22;68269;52.514;5.722;2023-06-22T12:18:10;24.90;61.20
78886;DHT22;68269;52.514;5.722;2023-06-22T12:20:43;24.80;61.30
78886;DHT22;68269;52.514;5.722;2023-06-22T12:23:12;24.80;61.40
78886;DHT22;68269;52.514;5.722;2023-06-22T12:25:42;24.80;61.40
78886;DHT22;68269;52.514;5.722;2023-06-22T12:28:11;24.80;61.40
78886;DHT22;68269;52.514;5.722;2023-06-22T12:30:40;24.80;61.40
78886;DHT22;68269;52.514;5.722;2023-06-22T12:33:10;24.70;61.30
78886;DHT22;68269;52.514;5.722;2023-06-22T12:35:39;24.70;61.30
78886;DHT22;68269;52.514;5.722;2023-06-22T12:38:12;24.70;61.40
78886;DHT22;68269;52.514;5.722;2023-06-22T12:40:41;24.70;61.40
78886;DHT22;68269;52.514;5.722;2023-06-22T12:43:10;24.70;61.50
78886;DHT22;68269;52.514;5.722;2023-06-22T12:45:40;24.70;61.60
78886;DHT22;68269;52.514;5.722;2023-06-22T12:48:09;24.60;61.70
78886;DHT22;68269;52.514;5.722;2023-06-22T12:50:39;24.60;61.80
78886;DHT22;68269;52.514;5.722;2023-06-22T12:53:10;24.60;61.80
78886;DHT22;68269;52.514;5.722;2023-06-22T12:55:40;24.60;61.90
78886;DHT22;68269;52.514;5.722;2023-06-22T12:58:09;24.60;62.00
78886;DHT22;68269;52.514;5.722;2023-06-22T13:00:39;24.50;62.20
78886;DHT22;68269;52.514;5.722;2023-06-22T13:03:08;24.50;62.40
78886;DHT22;68269;52.514;5.722;2023-06-22T13:05:37;24.40;62.50
78886;DHT22;68269;52.514;5.722;2023-06-22T13:08:06;24.40;62.70
78886;DHT22;68269;52.514;5.722;2023-06-22T13:10:39;24.40;62.90
78886;DHT22;68269;52.514;5.722;2023-06-22T13:13:09;24.40;63.20
78886;DHT22;68269;52.514;5.722;2023-06-22T13:15:38;24.40;63.30
78886;DHT22;68269;52.514;5.722;2023-06-22T13:18:07;24.40;63.50
78886;DHT22;68269;52.514;5.722;2023-06-22T13:20:36;24.30;63.50
78886;DHT22;68269;52.514;5.722;2023-06-22T13:23:06;24.40;63.40
78886;DHT22;68269;52.514;5.722;2023-06-22T13:25:35;24.40;63.40
78886;DHT22;68269;52.514;5.722;2023-06-22T13:28:07;24.40;63.40
78886;DHT22;68269;52.514;5.722;2023-06-22T13:30:37;24.50;63.40
78886;DHT22;68269;52.514;5.722;2023-06-22T13:33:06;24.50;63.20
78886;DHT22;68269;52.514;5.722;2023-06-22T13:35:35;24.50;63.30
78886;DHT22;68269;52.514;5.722;2023-06-22T13:38:05;24.40;63.40
78886;DHT22;68269;52.514;5.722;2023-06-22T13:40:34;24.40;63.50
78886;DHT22;68269;52.514;5.722;2023-06-22T13:43:06;24.40;63.60
78886;DHT22;68269;52.514;5.722;2023-06-22T13:45:36;24.40;63.60
78886;DHT22;68269;52.514;5.722;2023-06-22T13:48:05;24.40;63.70
78886;DHT22;68269;52.514;5.722;2023-06-22T13:50:35;24.50;63.70
78886;DHT22;68269;52.514;5.722;2023-06-22T13:53:04;24.40;63.80
78886;DHT22;68269;52.514;5.722;2023-06-22T13:55:34;24.40;63.90
78886;DHT22;68269;52.514;5.722;2023-06-22T13:58:03;24.40;63.90
78886;DHT22;68269;52.514;5.722;2023-06-22T14:00:35;24.40;64.10
78886;DHT22;68269;52.514;5.722;2023-06-22T14:03:04;24.40;64.20
78886;DHT22;68269;52.514;5.722;2023-06-22T14:05:33;24.40;64.30
78886;DHT22;68269;52.514;5.722;2023-06-22T14:08:03;24.30;64.50
78886;DHT22;68269;52.514;5.722;2023-06-22T14:10:32;24.20;64.60
78886;DHT22;68269;52.514;5.722;2023-06-22T14:13:01;24.20;64.70
78886;DHT22;68269;52.514;5.722;2023-06-22T14:15:34;24.20;64.90
78886;DHT22;68269;52.514;5.722;2023-06-22T14:18:04;24.10;65.10
78886;DHT22;68269;52.514;5.722;2023-06-22T14:20:33;24.00;65.20
78886;DHT22;68269;52.514;5.722;2023-06-22T14:23:02;24.00;65.40
78886;DHT22;68269;52.514;5.722;2023-06-22T14:25:31;24.00;65.60
78886;DHT22;68269;52.514;5.722;2023-06-22T14:28:01;24.00;65.80
78886;DHT22;68269;52.514;5.722;2023-06-22T14:30:30;23.90;65.90
78886;DHT22;68269;52.514;5.722;2023-06-22T14:33:02;23.90;65.90
78886;DHT22;68269;52.514;5.722;2023-06-22T14:35:31;23.90;66.10
78886;DHT22;68269;52.514;5.722;2023-06-22T14:38:00;23.90;66.10
78886;DHT22;68269;52.514;5.722;2023-06-22T14:40:30;23.90;66.20
78886;DHT22;68269;52.514;5.722;2023-06-22T14:42:59;23.90;66.20
78886;DHT22;68269;52.514;5.722;2023-06-22T14:45:28;23.90;66.20
78886;DHT22;68269;52.514;5.722;2023-06-22T14:47:58;23.80;66.20
78886;DHT22;68269;52.514;5.722;2023-06-22T14:50:30;23.80;66.20
78886;DHT22;68269;52.514;5.722;2023-06-22T14:52:59;23.80;66.20
78886;DHT22;68269;52.514;5.722;2023-06-22T14:55:28;23.80;66.20
78886;DHT22;68269;52.514;5.722;2023-06-22T14:57:57;23.80;66.30
78886;DHT22;68269;52.514;5.722;2023-06-22T15:00:27;23.80;66.40
78886;DHT22;68269;52.514;5.722;2023-06-22T15:02:56;23.70;66.50
78886;DHT22;68269;52.514;5.722;2023-06-22T15:05:25;23.70;66.50
78886;DHT22;68269;52.514;5.722;2023-06-22T15:07:57;23.60;66.60
78886;DHT22;68269;52.514;5.722;2023-06-22T15:10:27;23.60;66.70
78886;DHT22;68269;52.514;5.722;2023-06-22T15:12:56;23.60;66.80
78886;DHT22;68269;52.514;5.722;2023-06-22T15:15:25;23.60;66.90
78886;DHT22;68269;52.514;5.722;2023-06-22T15:17:54;23.50;66.90
78886;DHT22;68269;52.514;5.722;2023-06-22T15:20:24;23.50;67.00
78886;DHT22;68269;52.514;5.722;2023-06-22T15:22:53;23.50;67.10
78886;DHT22;68269;52.514;5.722;2023-06-22T15:25:25;23.50;67.10
78886;DHT22;68269;52.514;5.722;2023-06-22T15:27:54;23.50;67.10
78886;DHT22;68269;52.514;5.722;2023-06-22T15:30:23;23.40;67.20
78886;DHT22;68269;52.514;5.722;2023-06-22T15:32:53;23.40;67.20
78886;DHT22;68269;52.514;5.722;2023-06-22T15:35:22;23.40;67.20
78886;DHT22;68269;52.514;5.722;2023-06-22T15:37:52;23.40;67.30
78886;DHT22;68269;52.514;5.722;2023-06-22T15:40:21;23.40;67.40
78886;DHT22;68269;52.514;5.722;2023-06-22T15:42:53;23.30;67.40
78886;DHT22;68269;52.514;5.722;2023-06-22T15:45:22;23.30;67.50
78886;DHT22;68269;52.514;5.722;2023-06-22T15:47:51;23.30;67.50
78886;DHT22;68269;52.514;5.722;2023-06-22T15:50:21;23.30;67.60